sensor_id;sensor_type;location;lat;lon;timestamp;temperature;humidity
58993;DHT22;44782;0.000;0.000;2023-02-27T00:02:15;15.20;44.70
58993;DHT22;44782;0.000;0.000;2023-02-27T00:04:31;15.10;44.60
58993;DHT22;44782;0.000;0.000;2023-02-27T00:06:49;15.10;45.30
58993;DHT22;44782;0.000;0.000;2023-02-27T00:09:05;15.10;44.50
58993;DHT22;44782;0.000;0.000;2023-02-27T00:11:20;15.10;44.60
58993;DHT22;44782;0.000;0.000;2023-02-27T00:13:36;15.10;44.40
58993;DHT22;44782;0.000;0.000;2023-02-27T00:15:52;15.10;44.50
58993;DHT22;44782;0.000;0.000;2023-02-27T00:18:07;15.00;44.50
58993;DHT22;44782;0.000;0.000;2023-02-27T00:20:23;15.00;44.40
58993;DHT22;44782;0.000;0.000;2023-02-27T00:22:40;14.90;44.30
58993;DHT22;44782;0.000;0.000;2023-02-27T00:24:56;15.00;44.40
58993;DHT22;44782;0.000;0.000;2023-02-27T00:27:11;14.90;44.20
58993;DHT22;44782;0.000;0.000;2023-02-27T00:29:27;14.90;44.30
58993;DHT22;44782;0.000;0.000;2023-02-27T00:31:43;14.90;44.20
58993;DHT22;44782;0.000;0.000;2023-02-27T00:33:59;14.90;44.20
58993;DHT22;44782;0.000;0.000;2023-02-27T00:36:14;14.90;44.10
58993;DHT22;44782;0.000;0.000;2023-02-27T00:38:30;14.80;44.00
58993;DHT22;44782;0.000;0.000;2023-02-27T00:40:46;14.80;44.10
58993;DHT22;44782;0.000;0.000;2023-02-27T00:43:02;14.80;44.00
58993;DHT22;44782;0.000;0.000;2023-02-27T00:45:19;14.80;44.00
58993;DHT22;44782;0.000;0.000;2023-02-27T00:47:35;14.80;43.90
58993;DHT22;44782;0.000;0.000;2023-02-27T00:49:50;14.70;43.90
58993;DHT22;44782;0.000;0.000;2023-02-27T00:52:06;14.80;44.00
58993;DHT22;44782;0.000;0.000;2023-02-27T00:54:22;14.80;43.90
58993;DHT22;44782;0.000;0.000;2023-02-27T00:56:37;14.70;43.90
58993;DHT22;44782;0.000;0.000;2023-02-27T00:58:53;14.70;43.80
58993;DHT22;44782;0.000;0.000;2023-02-27T01:01:09;14.70;43.80
58993;DHT22;44782;0.000;0.000;2023-02-27T01:03:25;14.70;43.80
58993;DHT22;44782;0.000;0.000;2023-02-27T01:05:41;14.70;43.70
58993;DHT22;44782;0.000;0.000;2023-02-27T01:07:56;14.60;43.60
58993;DHT22;44782;0.000;0.000;2023-02-27T01:10:12;14.60;43.70
58993;DHT22;44782;0.000;0.000;2023-02-27T01:12:28;14.60;43.70
58993;DHT22;44782;0.000;0.000;2023-02-27T01:14:44;14.60;43.70
58993;DHT22;44782;0.000;0.000;2023-02-27T01:16:59;14.60;43.70
58993;DHT22;44782;0.000;0.000;2023-02-27T01:19:15;14.60;43.70
58993;DHT22;44782;0.000;0.000;2023-02-27T01:21:31;14.60;43.70
58993;DHT22;44782;0.000;0.000;2023-02-27T01:23:46;14.60;43.60
58993;DHT22;44782;0.000;0.000;2023-02-27T01:26:02;14.50;43.60
58993;DHT22;44782;0.000;0.000;2023-02-27T01:28:18;14.50;43.60
58993;DHT22;44782;0.000;0.000;2023-02-27T01:30:33;14.50;43.50
58993;DHT22;44782;0.000;0.000;2023-02-27T01:32:49;14.50;43.50
58993;DHT22;44782;0.000;0.000;2023-02-27T01:35:05;14.50;43.60
58993;DHT22;44782;0.000;0.000;2023-02-27T01:37:21;14.50;43.50
58993;DHT22;44782;0.000;0.000;2023-02-27T01:39:36;14.40;43.50
58993;DHT22;44782;0.000;0.000;2023-02-27T01:41:52;14.40;43.40
58993;DHT22;44782;0.000;0.000;2023-02-27T01:44:11;14.40;43.40
58993;DHT22;44782;0.000;0.000;2023-02-27T01:46:28;14.40;43.30
58993;DHT22;44782;0.000;0.000;2023-02-27T01:48:44;14.40;43.50
58993;DHT22;44782;0.000;0.000;2023-02-27T01:51:05;14.40;43.50
58993;DHT22;44782;0.000;0.000;2023-02-27T01:53:22;14.40;43.30
58993;DHT22;44782;0.000;0.000;2023-02-27T01:55:40;14.40;43.40
58993;DHT22;44782;0.000;0.000;2023-02-27T01:57:56;14.30;43.30
58993;DHT22;44782;0.000;0.000;2023-02-27T02:00:13;14.30;43.30
58993;DHT22;44782;0.000;0.000;2023-02-27T02:02:33;14.30;43.30
58993;DHT22;44782;0.000;0.000;2023-02-27T02:04:51;14.30;43.10
58993;DHT22;44782;0.000;0.000;2023-02-27T02:09:36;14.30;43.20
58993;DHT22;44782;0.000;0.000;2023-02-27T02:11:53;14.30;43.20
58993;DHT22;44782;0.000;0.000;2023-02-27T02:14:10;14.30;43.20
58993;DHT22;44782;0.000;0.000;2023-02-27T02:16:43;14.30;43.10
58993;DHT22;44782;0.000;0.000;2023-02-27T02:29:21;14.30;43.00
58993;DHT22;44782;0.000;0.000;2023-02-27T02:50:43;14.40;42.30
58993;DHT22;44782;0.000;0.000;2023-02-27T02:53:29;14.40;41.80
58993;DHT22;44782;0.000;0.000;2023-02-27T03:00:54;14.40;42.30
58993;DHT22;44782;0.000;0.000;2023-02-27T03:03:27;14.40;42.20
58993;DHT22;44782;0.000;0.000;2023-02-27T03:05:53;14.40;42.20
58993;DHT22;44782;0.000;0.000;2023-02-27T03:10:32;14.40;42.30
58993;DHT22;44782;0.000;0.000;2023-02-27T03:12:55;14.40;42.20
58993;DHT22;44782;0.000;0.000;2023-02-27T03:15:20;14.40;41.90
58993;DHT22;44782;0.000;0.000;2023-02-27T03:20:03;14.40;42.00
58993;DHT22;44782;0.000;0.000;2023-02-27T03:22:26;14.40;41.90
58993;DHT22;44782;0.000;0.000;2023-02-27T03:24:54;14.40;42.00
58993;DHT22;44782;0.000;0.000;2023-02-27T03:27:10;14.40;41.60
58993;DHT22;44782;0.000;0.000;2023-02-27T03:29:30;14.40;42.10
58993;DHT22;44782;0.000;0.000;2023-02-27T03:32:00;14.40;41.80
58993;DHT22;44782;0.000;0.000;2023-02-27T03:34:26;14.40;41.60
58993;DHT22;44782;0.000;0.000;2023-02-27T03:36:47;14.40;41.90
58993;DHT22;44782;0.000;0.000;2023-02-27T03:39:34;14.30;41.90
58993;DHT22;44782;0.000;0.000;2023-02-27T03:46:40;14.30;42.00
58993;DHT22;44782;0.000;0.000;2023-02-27T03:48:55;14.30;42.00
58993;DHT22;44782;0.000;0.000;2023-02-27T03:51:13;14.30;41.90
58993;DHT22;44782;0.000;0.000;2023-02-27T03:53:42;14.30;41.90
58993;DHT22;44782;0.000;0.000;2023-02-27T03:56:00;14.30;41.60
58993;DHT22;44782;0.000;0.000;2023-02-27T03:58:17;14.30;41.90
58993;DHT22;44782;0.000;0.000;2023-02-27T04:00:33;14.30;42.00
58993;DHT22;44782;0.000;0.000;2023-02-27T04:02:50;14.20;41.90
58993;DHT22;44782;0.000;0.000;2023-02-27T04:05:07;14.20;41.80
58993;DHT22;44782;0.000;0.000;2023-02-27T04:12:43;14.20;41.40
58993;DHT22;44782;0.000;0.000;2023-02-27T04:20:22;14.10;41.60
58993;DHT22;44782;0.000;0.000;2023-02-27T04:22:52;14.10;41.50
58993;DHT22;44782;0.000;0.000;2023-02-27T04:27:40;14.10;41.60
58993;DHT22;44782;0.000;0.000;2023-02-27T04:35:51;14.10;41.40
58993;DHT22;44782;0.000;0.000;2023-02-27T04:38:22;14.00;41.70
58993;DHT22;44782;0.000;0.000;2023-02-27T04:41:03;14.00;41.70
58993;DHT22;44782;0.000;0.000;2023-02-27T04:43:21;14.00;41.80
58993;DHT22;44782;0.000;0.000;2023-02-27T04:45:39;14.00;42.00
58993;DHT22;44782;0.000;0.000;2023-02-27T04:48:08;14.00;42.10
58993;DHT22;44782;0.000;0.000;2023-02-27T04:50:45;14.00;41.90
58993;DHT22;44782;0.000;0.000;2023-02-27T04:53:23;14.00;41.60
58993;DHT22;44782;0.000;0.000;2023-02-27T04:55:46;14.00;41.60
58993;DHT22;44782;0.000;0.000;2023-02-27T04:58:26;13.90;41.90
58993;DHT22;44782;0.000;0.000;2023-02-27T05:00:45;13.90;41.50
58993;DHT22;44782;0.000;0.000;2023-02-27T05:03:29;13.90;42.10
58993;DHT22;44782;0.000;0.000;2023-02-27T05:05:47;13.90;41.70
58993;DHT22;44782;0.000;0.000;2023-02-27T05:08:09;13.80;42.10
58993;DHT22;44782;0.000;0.000;2023-02-27T05:10:37;13.90;42.00
58993;DHT22;44782;0.000;0.000;2023-02-27T05:13:00;13.80;41.90
58993;DHT22;44782;0.000;0.000;2023-02-27T05:15:25;13.80;41.90
58993;DHT22;44782;0.000;0.000;2023-02-27T05:17:50;13.80;41.90
58993;DHT22;44782;0.000;0.000;2023-02-27T05:20:09;13.80;41.80
58993;DHT22;44782;0.000;0.000;2023-02-27T05:25:12;13.80;41.90
58993;DHT22;44782;0.000;0.000;2023-02-27T05:27:39;13.80;41.60
58993;DHT22;44782;0.000;0.000;2023-02-27T05:30:02;13.80;41.80
58993;DHT22;44782;0.000;0.000;2023-02-27T05:35:20;13.80;41.60
58993;DHT22;44782;0.000;0.000;2023-02-27T05:37:52;13.70;41.80
58993;DHT22;44782;0.000;0.000;2023-02-27T05:40:13;13.70;41.90
58993;DHT22;44782;0.000;0.000;2023-02-27T05:42:33;13.70;42.10
58993;DHT22;44782;0.000;0.000;2023-02-27T05:44:54;13.70;42.20
58993;DHT22;44782;0.000;0.000;2023-02-27T05:47:14;13.70;42.10
58993;DHT22;44782;0.000;0.000;2023-02-27T05:49:40;13.70;42.20
58993;DHT22;44782;0.000;0.000;2023-02-27T05:52:01;13.60;42.10
58993;DHT22;44782;0.000;0.000;2023-02-27T05:54:42;13.70;42.20
58993;DHT22;44782;0.000;0.000;2023-02-27T05:57:00;13.70;42.40
58993;DHT22;44782;0.000;0.000;2023-02-27T05:59:41;13.60;42.20
58993;DHT22;44782;0.000;0.000;2023-02-27T06:01:59;13.70;41.80
58993;DHT22;44782;0.000;0.000;2023-02-27T06:04:15;13.60;42.30
58993;DHT22;44782;0.000;0.000;2023-02-27T06:06:31;13.60;42.20
58993;DHT22;44782;0.000;0.000;2023-02-27T06:08:49;13.60;42.20
58993;DHT22;44782;0.000;0.000;2023-02-27T06:11:05;13.60;42.20
58993;DHT22;44782;0.000;0.000;2023-02-27T06:13:21;13.50;42.20
58993;DHT22;44782;0.000;0.000;2023-02-27T06:15:38;13.50;42.20
58993;DHT22;44782;0.000;0.000;2023-02-27T06:17:53;13.50;42.20
58993;DHT22;44782;0.000;0.000;2023-02-27T06:20:10;13.50;42.20
58993;DHT22;44782;0.000;0.000;2023-02-27T06:22:25;13.50;42.20
58993;DHT22;44782;0.000;0.000;2023-02-27T06:24:41;13.50;42.20
58993;DHT22;44782;0.000;0.000;2023-02-27T06:26:57;13.50;42.20
58993;DHT22;44782;0.000;0.000;2023-02-27T06:29:12;13.40;42.20
58993;DHT22;44782;0.000;0.000;2023-02-27T06:31:28;13.40;42.20
58993;DHT22;44782;0.000;0.000;2023-02-27T06:33:44;13.40;42.30
58993;DHT22;44782;0.000;0.000;2023-02-27T06:35:59;13.40;42.30
58993;DHT22;44782;0.000;0.000;2023-02-27T06:38:15;13.40;42.20
58993;DHT22;44782;0.000;0.000;2023-02-27T06:40:31;13.40;42.30
58993;DHT22;44782;0.000;0.000;2023-02-27T06:42:47;13.40;42.30
58993;DHT22;44782;0.000;0.000;2023-02-27T06:45:03;13.40;42.30
58993;DHT22;44782;0.000;0.000;2023-02-27T06:47:18;13.40;42.30
58993;DHT22;44782;0.000;0.000;2023-02-27T06:49:34;13.30;42.30
58993;DHT22;44782;0.000;0.000;2023-02-27T06:51:50;13.30;42.30
58993;DHT22;44782;0.000;0.000;2023-02-27T06:54:06;13.30;42.30
58993;DHT22;44782;0.000;0.000;2023-02-27T06:56:22;13.30;42.40
58993;DHT22;44782;0.000;0.000;2023-02-27T06:58:38;13.30;42.40
58993;DHT22;44782;0.000;0.000;2023-02-27T07:00:53;13.30;42.40
58993;DHT22;44782;0.000;0.000;2023-02-27T07:03:09;13.30;42.40
58993;DHT22;44782;0.000;0.000;2023-02-27T07:05:25;13.30;42.40
58993;DHT22;44782;0.000;0.000;2023-02-27T07:07:40;13.20;42.30
58993;DHT22;44782;0.000;0.000;2023-02-27T07:09:56;13.30;42.30
58993;DHT22;44782;0.000;0.000;2023-02-27T07:12:11;13.20;42.30
58993;DHT22;44782;0.000;0.000;2023-02-27T07:14:27;13.30;42.30
58993;DHT22;44782;0.000;0.000;2023-02-27T07:16:43;13.20;42.20
58993;DHT22;44782;0.000;0.000;2023-02-27T07:18:58;13.30;42.20
58993;DHT22;44782;0.000;0.000;2023-02-27T07:21:14;13.20;42.10
58993;DHT22;44782;0.000;0.000;2023-02-27T07:23:30;13.20;42.10
58993;DHT22;44782;0.000;0.000;2023-02-27T07:25:47;13.30;42.10
58993;DHT22;44782;0.000;0.000;2023-02-27T07:28:03;13.30;42.00
58993;DHT22;44782;0.000;0.000;2023-02-27T07:30:19;13.30;42.00
58993;DHT22;44782;0.000;0.000;2023-02-27T07:32:35;13.30;42.00
58993;DHT22;44782;0.000;0.000;2023-02-27T07:34:50;13.40;41.90
58993;DHT22;44782;0.000;0.000;2023-02-27T07:37:06;13.40;42.10
58993;DHT22;44782;0.000;0.000;2023-02-27T07:39:22;13.40;42.10
58993;DHT22;44782;0.000;0.000;2023-02-27T07:41:38;13.40;42.20
58993;DHT22;44782;0.000;0.000;2023-02-27T07:43:53;13.50;42.20
58993;DHT22;44782;0.000;0.000;2023-02-27T07:46:09;13.50;42.30
58993;DHT22;44782;0.000;0.000;2023-02-27T07:48:25;13.50;42.20
58993;DHT22;44782;0.000;0.000;2023-02-27T07:50:40;13.60;42.20
58993;DHT22;44782;0.000;0.000;2023-02-27T07:52:56;13.60;42.10
58993;DHT22;44782;0.000;0.000;2023-02-27T07:55:12;13.60;42.10
58993;DHT22;44782;0.000;0.000;2023-02-27T07:57:28;13.70;42.10
58993;DHT22;44782;0.000;0.000;2023-02-27T07:59:44;13.70;42.10
58993;DHT22;44782;0.000;0.000;2023-02-27T08:01:59;13.70;42.10
58993;DHT22;44782;0.000;0.000;2023-02-27T08:04:15;13.70;42.00
58993;DHT22;44782;0.000;0.000;2023-02-27T08:06:31;13.70;41.90
58993;DHT22;44782;0.000;0.000;2023-02-27T08:08:46;13.70;41.90
58993;DHT22;44782;0.000;0.000;2023-02-27T08:11:02;13.80;41.90
58993;DHT22;44782;0.000;0.000;2023-02-27T08:13:18;13.80;42.00
58993;DHT22;44782;0.000;0.000;2023-02-27T08:15:33;13.80;41.90
58993;DHT22;44782;0.000;0.000;2023-02-27T08:17:49;13.80;41.90
58993;DHT22;44782;0.000;0.000;2023-02-27T08:20:05;13.80;41.90
58993;DHT22;44782;0.000;0.000;2023-02-27T08:22:21;13.80;41.80
58993;DHT22;44782;0.000;0.000;2023-02-27T08:24:37;13.80;41.80
58993;DHT22;44782;0.000;0.000;2023-02-27T08:26:54;13.80;41.80
58993;DHT22;44782;0.000;0.000;2023-02-27T08:29:11;13.80;41.80
58993;DHT22;44782;0.000;0.000;2023-02-27T08:31:27;13.90;42.00
58993;DHT22;44782;0.000;0.000;2023-02-27T08:33:43;13.90;42.10
58993;DHT22;44782;0.000;0.000;2023-02-27T08:35:58;13.90;42.50
58993;DHT22;44782;0.000;0.000;2023-02-27T08:38:14;13.90;42.30
58993;DHT22;44782;0.000;0.000;2023-02-27T08:40:29;13.90;42.50
58993;DHT22;44782;0.000;0.000;2023-02-27T08:42:45;13.90;42.80
58993;DHT22;44782;0.000;0.000;2023-02-27T08:45:01;14.00;43.40
58993;DHT22;44782;0.000;0.000;2023-02-27T08:47:17;14.10;43.90
58993;DHT22;44782;0.000;0.000;2023-02-27T08:49:33;14.10;44.00
58993;DHT22;44782;0.000;0.000;2023-02-27T08:51:48;14.10;43.80
58993;DHT22;44782;0.000;0.000;2023-02-27T08:54:04;14.00;43.80
58993;DHT22;44782;0.000;0.000;2023-02-27T08:56:22;14.00;43.70
58993;DHT22;44782;0.000;0.000;2023-02-27T08:58:38;14.00;43.80
58993;DHT22;44782;0.000;0.000;2023-02-27T09:00:54;13.90;43.80
58993;DHT22;44782;0.000;0.000;2023-02-27T09:03:09;13.90;43.80
58993;DHT22;44782;0.000;0.000;2023-02-27T09:05:26;13.90;43.90
58993;DHT22;44782;0.000;0.000;2023-02-27T09:07:42;13.80;43.70
58993;DHT22;44782;0.000;0.000;2023-02-27T09:09:57;13.80;43.70
58993;DHT22;44782;0.000;0.000;2023-02-27T09:12:13;13.80;43.80
58993;DHT22;44782;0.000;0.000;2023-02-27T09:14:29;13.90;43.60
58993;DHT22;44782;0.000;0.000;2023-02-27T09:16:44;13.80;43.70
58993;DHT22;44782;0.000;0.000;2023-02-27T09:19:00;13.80;43.80
58993;DHT22;44782;0.000;0.000;2023-02-27T09:21:16;13.80;43.70
58993;DHT22;44782;0.000;0.000;2023-02-27T09:23:32;13.80;43.80
58993;DHT22;44782;0.000;0.000;2023-02-27T09:25:47;13.90;44.10
58993;DHT22;44782;0.000;0.000;2023-02-27T09:28:03;13.90;44.40
58993;DHT22;44782;0.000;0.000;2023-02-27T09:30:19;13.90;44.70
58993;DHT22;44782;0.000;0.000;2023-02-27T09:32:35;14.00;45.10
58993;DHT22;44782;0.000;0.000;2023-02-27T09:34:53;14.00;45.20
58993;DHT22;44782;0.000;0.000;2023-02-27T09:37:09;14.00;45.40
58993;DHT22;44782;0.000;0.000;2023-02-27T09:39:25;14.00;45.50
58993;DHT22;44782;0.000;0.000;2023-02-27T09:41:58;14.00;45.30
58993;DHT22;44782;0.000;0.000;2023-02-27T09:46:40;14.10;45.50
58993;DHT22;44782;0.000;0.000;2023-02-27T09:48:57;14.00;45.20
58993;DHT22;44782;0.000;0.000;2023-02-27T09:51:14;14.10;45.30
58993;DHT22;44782;0.000;0.000;2023-02-27T09:53:40;14.00;45.20
58993;DHT22;44782;0.000;0.000;2023-02-27T09:56:23;14.00;45.20
58993;DHT22;44782;0.000;0.000;2023-02-27T09:58:45;14.00;45.40
58993;DHT22;44782;0.000;0.000;2023-02-27T10:01:04;13.90;45.20
58993;DHT22;44782;0.000;0.000;2023-02-27T10:03:29;13.90;45.30
58993;DHT22;44782;0.000;0.000;2023-02-27T10:08:27;13.80;45.20
58993;DHT22;44782;0.000;0.000;2023-02-27T10:16:09;13.80;44.70
58993;DHT22;44782;0.000;0.000;2023-02-27T10:18:32;13.70;44.70
58993;DHT22;44782;0.000;0.000;2023-02-27T10:21:17;13.70;44.80
58993;DHT22;44782;0.000;0.000;2023-02-27T10:26:04;13.70;44.70
58993;DHT22;44782;0.000;0.000;2023-02-27T10:28:21;13.60;44.50
58993;DHT22;44782;0.000;0.000;2023-02-27T10:30:37;13.60;44.50
58993;DHT22;44782;0.000;0.000;2023-02-27T10:33:05;13.60;44.30
58993;DHT22;44782;0.000;0.000;2023-02-27T10:35:43;13.60;44.20
58993;DHT22;44782;0.000;0.000;2023-02-27T10:38:32;13.60;44.10
58993;DHT22;44782;0.000;0.000;2023-02-27T10:40:49;13.60;43.90
58993;DHT22;44782;0.000;0.000;2023-02-27T10:43:04;13.60;44.10
58993;DHT22;44782;0.000;0.000;2023-02-27T10:45:21;13.60;44.00
58993;DHT22;44782;0.000;0.000;2023-02-27T10:47:37;13.50;43.90
58993;DHT22;44782;0.000;0.000;2023-02-27T10:49:54;13.50;43.90
58993;DHT22;44782;0.000;0.000;2023-02-27T10:52:13;13.50;43.70
58993;DHT22;44782;0.000;0.000;2023-02-27T10:54:29;13.50;43.60
58993;DHT22;44782;0.000;0.000;2023-02-27T10:56:47;13.40;43.80
58993;DHT22;44782;0.000;0.000;2023-02-27T10:59:10;13.50;43.60
58993;DHT22;44782;0.000;0.000;2023-02-27T11:01:50;13.50;43.60
58993;DHT22;44782;0.000;0.000;2023-02-27T11:04:06;13.50;43.30
58993;DHT22;44782;0.000;0.000;2023-02-27T11:06:26;13.40;43.50
58993;DHT22;44782;0.000;0.000;2023-02-27T11:08:42;13.40;43.30
58993;DHT22;44782;0.000;0.000;2023-02-27T11:11:03;13.40;43.30
58993;DHT22;44782;0.000;0.000;2023-02-27T11:13:21;13.40;43.20
58993;DHT22;44782;0.000;0.000;2023-02-27T11:15:37;13.40;43.40
58993;DHT22;44782;0.000;0.000;2023-02-27T11:17:53;13.30;43.20
58993;DHT22;44782;0.000;0.000;2023-02-27T11:22:43;13.30;42.80
58993;DHT22;44782;0.000;0.000;2023-02-27T11:25:20;13.30;43.20
58993;DHT22;44782;0.000;0.000;2023-02-27T11:27:36;13.30;42.90
58993;DHT22;44782;0.000;0.000;2023-02-27T11:29:59;13.30;43.10
58993;DHT22;44782;0.000;0.000;2023-02-27T11:32:15;13.30;42.80
58993;DHT22;44782;0.000;0.000;2023-02-27T11:34:45;13.30;43.10
58993;DHT22;44782;0.000;0.000;2023-02-27T11:37:30;13.30;42.70
58993;DHT22;44782;0.000;0.000;2023-02-27T11:40:01;13.30;42.40
58993;DHT22;44782;0.000;0.000;2023-02-27T11:42:28;13.20;42.70
58993;DHT22;44782;0.000;0.000;2023-02-27T11:47:37;13.20;42.20
58993;DHT22;44782;0.000;0.000;2023-02-27T11:52:46;13.20;42.00
58993;DHT22;44782;0.000;0.000;2023-02-27T11:55:11;13.20;42.10
58993;DHT22;44782;0.000;0.000;2023-02-27T11:57:34;13.20;42.40
58993;DHT22;44782;0.000;0.000;2023-02-27T12:02:25;13.10;42.00
58993;DHT22;44782;0.000;0.000;2023-02-27T12:04:58;13.10;42.00
58993;DHT22;44782;0.000;0.000;2023-02-27T12:09:41;13.10;41.80
58993;DHT22;44782;0.000;0.000;2023-02-27T12:12:00;13.20;41.80
58993;DHT22;44782;0.000;0.000;2023-02-27T12:14:27;13.20;41.90
58993;DHT22;44782;0.000;0.000;2023-02-27T12:16:52;13.20;41.70
58993;DHT22;44782;0.000;0.000;2023-02-27T12:21:44;13.20;41.30
58993;DHT22;44782;0.000;0.000;2023-02-27T12:24:03;13.20;41.60
58993;DHT22;44782;0.000;0.000;2023-02-27T12:26:30;13.20;41.70
58993;DHT22;44782;0.000;0.000;2023-02-27T12:31:37;13.30;41.40
58993;DHT22;44782;0.000;0.000;2023-02-27T12:36:30;13.30;41.60
58993;DHT22;44782;0.000;0.000;2023-02-27T12:38:46;13.30;41.50
58993;DHT22;44782;0.000;0.000;2023-02-27T12:41:32;13.30;41.40
58993;DHT22;44782;0.000;0.000;2023-02-27T12:47:07;13.30;41.00
58993;DHT22;44782;0.000;0.000;2023-02-27T13:00:09;13.40;40.70
58993;DHT22;44782;0.000;0.000;2023-02-27T13:10:12;13.30;40.60
58993;DHT22;44782;0.000;0.000;2023-02-27T13:12:45;13.30;40.90
58993;DHT22;44782;0.000;0.000;2023-02-27T13:15:24;13.30;41.20
58993;DHT22;44782;0.000;0.000;2023-02-27T13:17:53;13.30;40.80
58993;DHT22;44782;0.000;0.000;2023-02-27T13:22:57;13.30;40.90
58993;DHT22;44782;0.000;0.000;2023-02-27T13:25:19;13.30;40.80
58993;DHT22;44782;0.000;0.000;2023-02-27T13:27:52;13.30;41.30
58993;DHT22;44782;0.000;0.000;2023-02-27T13:30:20;13.30;40.90
58993;DHT22;44782;0.000;0.000;2023-02-27T13:32:51;13.30;40.90
58993;DHT22;44782;0.000;0.000;2023-02-27T13:45:03;13.30;41.00
58993;DHT22;44782;0.000;0.000;2023-02-27T13:49:45;13.30;40.70
58993;DHT22;44782;0.000;0.000;2023-02-27T13:52:01;13.30;41.00
58993;DHT22;44782;0.000;0.000;2023-02-27T13:54:19;13.30;41.00
58993;DHT22;44782;0.000;0.000;2023-02-27T13:56:36;13.30;41.10
58993;DHT22;44782;0.000;0.000;2023-02-27T13:58:51;13.20;41.00
58993;DHT22;44782;0.000;0.000;2023-02-27T14:01:16;13.30;41.10
58993;DHT22;44782;0.000;0.000;2023-02-27T14:03:32;13.20;40.60
58993;DHT22;44782;0.000;0.000;2023-02-27T14:05:51;13.20;41.00
58993;DHT22;44782;0.000;0.000;2023-02-27T14:08:22;13.30;40.90
58993;DHT22;44782;0.000;0.000;2023-02-27T14:10:49;13.20;40.70
58993;DHT22;44782;0.000;0.000;2023-02-27T14:13:55;13.20;40.90
58993;DHT22;44782;0.000;0.000;2023-02-27T14:15:51;13.20;40.80
58993;DHT22;44782;0.000;0.000;2023-02-27T14:18:47;13.20;40.60
58993;DHT22;44782;0.000;0.000;2023-02-27T14:21:04;13.20;40.20
58993;DHT22;44782;0.000;0.000;2023-02-27T14:23:24;13.10;40.60
58993;DHT22;44782;0.000;0.000;2023-02-27T14:28:30;13.10;40.60
58993;DHT22;44782;0.000;0.000;2023-02-27T14:31:03;13.10;40.50
58993;DHT22;44782;0.000;0.000;2023-02-27T14:33:46;13.10;40.30
58993;DHT22;44782;0.000;0.000;2023-02-27T14:36:07;13.10;40.70
58993;DHT22;44782;0.000;0.000;2023-02-27T14:38:24;13.10;40.80
58993;DHT22;44782;0.000;0.000;2023-02-27T14:43:34;13.10;40.50
58993;DHT22;44782;0.000;0.000;2023-02-27T14:45:52;13.10;40.40
58993;DHT22;44782;0.000;0.000;2023-02-27T14:48:09;13.10;40.80
58993;DHT22;44782;0.000;0.000;2023-02-27T14:50:31;13.10;40.90
58993;DHT22;44782;0.000;0.000;2023-02-27T14:52:48;13.10;40.80
58993;DHT22;44782;0.000;0.000;2023-02-27T14:55:24;13.10;41.00
58993;DHT22;44782;0.000;0.000;2023-02-27T15:05:39;13.00;40.50
58993;DHT22;44782;0.000;0.000;2023-02-27T15:07:55;13.00;40.90
58993;DHT22;44782;0.000;0.000;2023-02-27T15:10:19;13.00;40.80
58993;DHT22;44782;0.000;0.000;2023-02-27T15:12:39;13.00;40.70
58993;DHT22;44782;0.000;0.000;2023-02-27T15:14:57;13.00;40.90
58993;DHT22;44782;0.000;0.000;2023-02-27T15:17:19;13.00;40.80
58993;DHT22;44782;0.000;0.000;2023-02-27T15:19:35;13.00;40.90
58993;DHT22;44782;0.000;0.000;2023-02-27T15:21:54;13.00;41.00
58993;DHT22;44782;0.000;0.000;2023-02-27T15:24:21;13.00;41.00
58993;DHT22;44782;0.000;0.000;2023-02-27T15:26:39;13.00;40.70
58993;DHT22;44782;0.000;0.000;2023-02-27T15:28:55;13.00;41.00
58993;DHT22;44782;0.000;0.000;2023-02-27T15:31:19;13.00;41.00
58993;DHT22;44782;0.000;0.000;2023-02-27T15:33:36;13.00;40.90
58993;DHT22;44782;0.000;0.000;2023-02-27T15:35:51;13.00;41.10
58993;DHT22;44782;0.000;0.000;2023-02-27T15:40:41;13.00;40.70
58993;DHT22;44782;0.000;0.000;2023-02-27T15:42:57;13.00;41.10
58993;DHT22;44782;0.000;0.000;2023-02-27T15:45:23;12.90;41.00
58993;DHT22;44782;0.000;0.000;2023-02-27T15:47:39;12.90;40.80
58993;DHT22;44782;0.000;0.000;2023-02-27T15:50:08;12.90;41.00
58993;DHT22;44782;0.000;0.000;2023-02-27T15:52:25;12.90;40.90
58993;DHT22;44782;0.000;0.000;2023-02-27T15:54:59;12.90;41.20
58993;DHT22;44782;0.000;0.000;2023-02-27T15:57:15;12.90;40.80
58993;DHT22;44782;0.000;0.000;2023-02-27T15:59:35;12.90;41.20
58993;DHT22;44782;0.000;0.000;2023-02-27T16:01:51;12.90;41.00
58993;DHT22;44782;0.000;0.000;2023-02-27T16:04:22;12.90;41.20
58993;DHT22;44782;0.000;0.000;2023-02-27T16:06:39;12.90;41.00
58993;DHT22;44782;0.000;0.000;2023-02-27T16:08:58;12.90;41.20
58993;DHT22;44782;0.000;0.000;2023-02-27T16:11:30;12.90;41.20
58993;DHT22;44782;0.000;0.000;2023-02-27T16:13:46;12.90;41.10
58993;DHT22;44782;0.000;0.000;2023-02-27T16:16:21;12.80;41.30
58993;DHT22;44782;0.000;0.000;2023-02-27T16:18:46;12.90;41.20
58993;DHT22;44782;0.000;0.000;2023-02-27T16:21:20;12.90;41.10
58993;DHT22;44782;0.000;0.000;2023-02-27T16:23:36;12.90;41.10
58993;DHT22;44782;0.000;0.000;2023-02-27T16:28:16;12.80;41.30
58993;DHT22;44782;0.000;0.000;2023-02-27T16:30:31;12.80;41.30
58993;DHT22;44782;0.000;0.000;2023-02-27T16:32:47;12.80;41.30
58993;DHT22;44782;0.000;0.000;2023-02-27T16:35:18;12.80;41.40
58993;DHT22;44782;0.000;0.000;2023-02-27T16:37:37;12.80;41.20
58993;DHT22;44782;0.000;0.000;2023-02-27T16:39:53;12.80;41.40
58993;DHT22;44782;0.000;0.000;2023-02-27T16:42:09;12.80;41.50
58993;DHT22;44782;0.000;0.000;2023-02-27T16:44:25;12.80;41.40
58993;DHT22;44782;0.000;0.000;2023-02-27T16:46:41;12.80;41.50
58993;DHT22;44782;0.000;0.000;2023-02-27T16:48:57;12.80;41.40
58993;DHT22;44782;0.000;0.000;2023-02-27T16:51:22;12.80;41.40
58993;DHT22;44782;0.000;0.000;2023-02-27T16:53:38;12.80;41.50
58993;DHT22;44782;0.000;0.000;2023-02-27T16:55:53;12.70;41.40
58993;DHT22;44782;0.000;0.000;2023-02-27T16:58:13;12.80;41.50
58993;DHT22;44782;0.000;0.000;2023-02-27T17:00:29;12.80;41.40
58993;DHT22;44782;0.000;0.000;2023-02-27T17:02:45;12.80;41.50
58993;DHT22;44782;0.000;0.000;2023-02-27T17:05:02;12.70;41.50
58993;DHT22;44782;0.000;0.000;2023-02-27T17:07:18;12.80;41.40
58993;DHT22;44782;0.000;0.000;2023-02-27T17:09:34;12.70;41.50
58993;DHT22;44782;0.000;0.000;2023-02-27T17:11:50;12.70;41.60
58993;DHT22;44782;0.000;0.000;2023-02-27T17:14:05;12.70;41.60
58993;DHT22;44782;0.000;0.000;2023-02-27T17:16:21;12.70;41.70
58993;DHT22;44782;0.000;0.000;2023-02-27T17:18:36;12.70;41.60
58993;DHT22;44782;0.000;0.000;2023-02-27T17:20:52;12.70;41.60
58993;DHT22;44782;0.000;0.000;2023-02-27T17:23:09;12.70;41.70
58993;DHT22;44782;0.000;0.000;2023-02-27T17:25:25;12.70;41.70
58993;DHT22;44782;0.000;0.000;2023-02-27T17:27:42;12.70;41.70
58993;DHT22;44782;0.000;0.000;2023-02-27T17:29:58;12.70;41.80
58993;DHT22;44782;0.000;0.000;2023-02-27T17:32:13;12.60;41.70
58993;DHT22;44782;0.000;0.000;2023-02-27T17:34:29;12.70;41.80
58993;DHT22;44782;0.000;0.000;2023-02-27T17:36:45;12.60;41.70
58993;DHT22;44782;0.000;0.000;2023-02-27T17:39:00;12.60;41.70